sensor_id;sensor_type;location;lat;lon;timestamp;pressure;altitude;pressure_sealevel;temperature;humidity
19128;BME280;9696;53.686;10.094;2023-11-21T00:02:13;62107.28;;;-141.04;100.00
19128;BME280;9696;53.686;10.094;2023-11-21T00:04:44;62107.28;;;-141.04;100.00
19128;BME280;9696;53.686;10.094;2023-11-21T00:07:14;62107.28;;;-141.04;100.00
19128;BME280;9696;53.686;10.094;2023-11-21T00:09:46;62107.28;;;-141.04;100.00
19128;BME280;9696;53.686;10.094;2023-11-21T00:12:16;62107.28;;;-141.04;100.00
19128;BME280;9696;53.686;10.094;2023-11-21T00:14:52;62107.28;;;-141.04;100.00
19128;BME280;9696;53.686;10.094;2023-11-21T00:17:25;62107.28;;;-141.04;100.00
19128;BME280;9696;53.686;10.094;2023-11-21T00:20:08;62107.28;;;-141.04;100.00
19128;BME280;9696;53.686;10.094;2023-11-21T00:22:42;62107.28;;;-141.04;100.00
19128;BME280;9696;53.686;10.094;2023-11-21T00:25:11;62107.28;;;-141.04;100.00
19128;BME280;9696;53.686;10.094;2023-11-21T00:27:43;62107.28;;;-141.04;100.00
19128;BME280;9696;53.686;10.094;2023-11-21T00:30:15;100507.00;;;10.11;100.00
19128;BME280;9696;53.686;10.094;2023-11-21T00:32:45;100507.00;;;10.11;100.00
19128;BME280;9696;53.686;10.094;2023-11-21T00:35:14;100507.00;;;10.11;100.00
19128;BME280;9696;53.686;10.094;2023-11-21T00:37:46;100507.00;;;10.11;100.00
19128;BME280;9696;53.686;10.094;2023-11-21T00:40:17;100911.56;;;7.37;100.00
19128;BME280;9696;53.686;10.094;2023-11-21T00:42:49;100913.94;;;7.40;100.00
19128;BME280;9696;53.686;10.094;2023-11-21T00:45:20;100913.94;;;7.40;100.00
19128;BME280;9696;53.686;10.094;2023-11-21T00:47:49;100913.94;;;7.40;100.00
19128;BME280;9696;53.686;10.094;2023-11-21T00:50:18;100913.94;;;7.40;100.00
19128;BME280;9696;53.686;10.094;2023-11-21T00:52:48;62107.28;;;-141.04;100.00
19128;BME280;9696;53.686;10.094;2023-11-21T00:55:21;62107.28;;;-141.04;100.00
19128;BME280;9696;53.686;10.094;2023-11-21T00:57:51;62107.28;;;-141.04;100.00
19128;BME280;9696;53.686;10.094;2023-11-21T01:00:22;62107.28;;;-141.04;100.00
19128;BME280;9696;53.686;10.094;2023-11-21T01:02:51;62107.28;;;-141.04;100.00
19128;BME280;9696;53.686;10.094;2023-11-21T01:05:21;62107.28;;;-141.04;100.00
19128;BME280;9696;53.686;10.094;2023-11-21T01:07:51;62107.28;;;-141.04;100.00
19128;BME280;9696;53.686;10.094;2023-11-21T01:10:20;100913.94;;;7.40;100.00
19128;BME280;9696;53.686;10.094;2023-11-21T01:12:51;100949.25;;;7.08;100.00
19128;BME280;9696;53.686;10.094;2023-11-21T01:15:21;100955.84;;;7.14;100.00
19128;BME280;9696;53.686;10.094;2023-11-21T01:18:17;100958.34;;;7.02;100.00
19128;BME280;9696;53.686;10.094;2023-11-21T01:20:46;100956.69;;;7.01;100.00
19128;BME280;9696;53.686;10.094;2023-11-21T01:23:16;100956.88;;;6.98;100.00
19128;BME280;9696;53.686;10.094;2023-11-21T01:30:12;100977.13;;;6.95;100.00
19128;BME280;9696;53.686;10.094;2023-11-21T01:32:44;100966.47;;;6.85;100.00
19128;BME280;9696;53.686;10.094;2023-11-21T01:35:14;100982.31;;;6.82;100.00
19128;BME280;9696;53.686;10.094;2023-11-21T01:37:43;100983.56;;;6.89;100.00
19128;BME280;9696;53.686;10.094;2023-11-21T01:40:15;100979.28;;;6.88;100.00
19128;BME280;9696;53.686;10.094;2023-11-21T01:42:45;100979.28;;;6.88;100.00
19128;BME280;9696;53.686;10.094;2023-11-21T01:49:48;100992.97;;;6.79;100.00
19128;BME280;9696;53.686;10.094;2023-11-21T01:52:18;100983.56;;;6.89;100.00
19128;BME280;9696;53.686;10.094;2023-11-21T01:54:47;100983.56;;;6.89;100.00
19128;BME280;9696;53.686;10.094;2023-11-21T02:01:37;100983.56;;;6.89;100.00
19128;BME280;9696;53.686;10.094;2023-11-21T02:08:35;100983.56;;;6.89;100.00
19128;BME280;9696;53.686;10.094;2023-11-21T02:14:17;101005.13;;;6.66;100.00
19128;BME280;9696;53.686;10.094;2023-11-21T02:16:52;101015.28;;;6.83;100.00
19128;BME280;9696;53.686;10.094;2023-11-21T02:22:36;62107.28;;;-141.04;100.00
19128;BME280;9696;53.686;10.094;2023-11-21T02:25:54;62107.28;;;-141.04;100.00
19128;BME280;9696;53.686;10.094;2023-11-21T02:28:26;62107.28;;;-141.04;100.00
19128;BME280;9696;53.686;10.094;2023-11-21T02:30:55;62107.28;;;-141.04;100.00
19128;BME280;9696;53.686;10.094;2023-11-21T02:33:28;78645.31;;;-141.04;100.00
19128;BME280;9696;53.686;10.094;2023-11-21T02:35:57;62107.28;;;-141.04;100.00
19128;BME280;9696;53.686;10.094;2023-11-21T02:38:53;62107.28;;;-141.04;100.00
19128;BME280;9696;53.686;10.094;2023-11-21T02:41:24;62107.28;;;-141.04;100.00
19128;BME280;9696;53.686;10.094;2023-11-21T02:44:23;101015.28;;;6.83;100.00
19128;BME280;9696;53.686;10.094;2023-11-21T02:46:52;101039.25;;;6.49;100.00
19128;BME280;9696;53.686;10.094;2023-11-21T02:52:52;101047.63;;;6.54;100.00
19128;BME280;9696;53.686;10.094;2023-11-21T02:55:21;101047.63;;;6.54;100.00
19128;BME280;9696;53.686;10.094;2023-11-21T02:57:55;101054.53;;;6.55;100.00
19128;BME280;9696;53.686;10.094;2023-11-21T03:00:26;101054.41;;;6.56;100.00
19128;BME280;9696;53.686;10.094;2023-11-21T03:02:56;101062.50;;;6.52;100.00
19128;BME280;9696;53.686;10.094;2023-11-21T03:05:26;101051.72;;;6.58;100.00
19128;BME280;9696;53.686;10.094;2023-11-21T03:08:04;101052.28;;;6.49;100.00
19128;BME280;9696;53.686;10.094;2023-11-21T03:10:34;101058.84;;;6.42;100.00
19128;BME280;9696;53.686;10.094;2023-11-21T03:21:22;101074.38;;;6.43;100.00
19128;BME280;9696;53.686;10.094;2023-11-21T03:23:53;101068.69;;;6.37;100.00
19128;BME280;9696;53.686;10.094;2023-11-21T03:26:24;101080.44;;;6.44;100.00
19128;BME280;9696;53.686;10.094;2023-11-21T03:28:54;101079.88;;;6.39;100.00
19128;BME280;9696;53.686;10.094;2023-11-21T03:31:24;101087.69;;;6.39;100.00
19128;BME280;9696;53.686;10.094;2023-11-21T03:33:57;101088.25;;;6.44;100.00
19128;BME280;9696;53.686;10.094;2023-11-21T03:36:28;101088.25;;;6.44;100.00
19128;BME280;9696;53.686;10.094;2023-11-21T03:39:28;101088.25;;;6.44;100.00
19128;BME280;9696;53.686;10.094;2023-11-21T03:41:58;101088.25;;;6.44;100.00
19128;BME280;9696;53.686;10.094;2023-11-21T03:44:54;101103.56;;;6.48;100.00
19128;BME280;9696;53.686;10.094;2023-11-21T03:47:25;101122.84;;;6.46;100.00
19128;BME280;9696;53.686;10.094;2023-11-21T03:49:55;101120.31;;;6.44;100.00
19128;BME280;9696;53.686;10.094;2023-11-21T03:52:52;101130.47;;;6.49;100.00
19128;BME280;9696;53.686;10.094;2023-11-21T03:55:22;101131.31;;;6.49;100.00
19128;BME280;9696;53.686;10.094;2023-11-21T03:58:08;101131.31;;;6.49;100.00
19128;BME280;9696;53.686;10.094;2023-11-21T04:00:37;101131.31;;;6.49;100.00
19128;BME280;9696;53.686;10.094;2023-11-21T04:03:07;62107.28;;;-141.04;100.00
19128;BME280;9696;53.686;10.094;2023-11-21T04:05:42;101131.31;;;6.49;100.00
19128;BME280;9696;53.686;10.094;2023-11-21T04:08:13;101131.31;;;6.49;100.00
19128;BME280;9696;53.686;10.094;2023-11-21T04:10:43;101131.31;;;6.49;100.00
19128;BME280;9696;53.686;10.094;2023-11-21T04:13:12;101131.31;;;6.49;100.00
19128;BME280;9696;53.686;10.094;2023-11-21T04:20:06;62107.28;;;-141.04;100.00
19128;BME280;9696;53.686;10.094;2023-11-21T04:22:38;62107.28;;;-141.04;100.00
19128;BME280;9696;53.686;10.094;2023-11-21T04:25:14;62107.28;;;-141.04;100.00
19128;BME280;9696;53.686;10.094;2023-11-21T04:27:45;62107.28;;;-141.04;100.00
19128;BME280;9696;53.686;10.094;2023-11-21T04:30:15;62107.28;;;-141.04;100.00
19128;BME280;9696;53.686;10.094;2023-11-21T04:32:46;62107.28;;;-141.04;100.00
19128;BME280;9696;53.686;10.094;2023-11-21T04:35:41;62107.28;;;-141.04;100.00
19128;BME280;9696;53.686;10.094;2023-11-21T04:38:11;62107.28;;;-141.04;100.00
19128;BME280;9696;53.686;10.094;2023-11-21T04:40:42;62107.28;;;-141.04;100.00
19128;BME280;9696;53.686;10.094;2023-11-21T04:43:12;62107.28;;;-141.04;100.00
19128;BME280;9696;53.686;10.094;2023-11-21T04:45:41;62107.28;;;-141.04;100.00
19128;BME280;9696;53.686;10.094;2023-11-21T04:48:13;62107.28;;;-141.04;100.00
19128;BME280;9696;53.686;10.094;2023-11-21T04:50:43;62107.28;;;-141.04;100.00
19128;BME280;9696;53.686;10.094;2023-11-21T04:53:12;62107.28;;;-141.04;100.00
19128;BME280;9696;53.686;10.094;2023-11-21T04:55:43;62107.28;;;-141.04;100.00
19128;BME280;9696;53.686;10.094;2023-11-21T04:58:13;62107.28;;;-141.04;100.00
19128;BME280;9696;53.686;10.094;2023-11-21T05:00:43;62107.28;;;-141.04;100.00
19128;BME280;9696;53.686;10.094;2023-11-21T05:03:12;62107.28;;;-141.04;100.00
19128;BME280;9696;53.686;10.094;2023-11-21T05:05:42;62107.28;;;-141.04;100.00
19128;BME280;9696;53.686;10.094;2023-11-21T05:08:11;62107.28;;;-141.04;100.00
19128;BME280;9696;53.686;10.094;2023-11-21T05:10:43;62107.28;;;-141.04;100.00
19128;BME280;9696;53.686;10.094;2023-11-21T05:13:14;62107.28;;;-141.04;100.00
19128;BME280;9696;53.686;10.094;2023-11-21T05:15:45;62107.28;;;-141.04;100.00
19128;BME280;9696;53.686;10.094;2023-11-21T05:18:15;62107.28;;;-141.04;100.00
19128;BME280;9696;53.686;10.094;2023-11-21T05:20:46;62107.28;;;-141.04;100.00
19128;BME280;9696;53.686;10.094;2023-11-21T05:23:15;62107.28;;;-141.04;100.00
19128;BME280;9696;53.686;10.094;2023-11-21T05:25:46;62107.28;;;-141.04;100.00
19128;BME280;9696;53.686;10.094;2023-11-21T05:28:15;62107.28;;;-141.04;100.00
19128;BME280;9696;53.686;10.094;2023-11-21T05:30:45;62107.28;;;-141.04;100.00
19128;BME280;9696;53.686;10.094;2023-11-21T05:33:14;62107.28;;;-141.04;100.00
19128;BME280;9696;53.686;10.094;2023-11-21T05:35:44;62107.28;;;-141.04;100.00
19128;BME280;9696;53.686;10.094;2023-11-21T05:38:13;62107.28;;;-141.04;100.00
19128;BME280;9696;53.686;10.094;2023-11-21T05:41:01;62107.28;;;-141.04;100.00
19128;BME280;9696;53.686;10.094;2023-11-21T05:43:31;62107.28;;;-141.04;100.00
19128;BME280;9696;53.686;10.094;2023-11-21T05:46:03;62107.28;;;-141.04;100.00
19128;BME280;9696;53.686;10.094;2023-11-21T05:48:35;62107.28;;;-141.04;100.00
19128;BME280;9696;53.686;10.094;2023-11-21T05:51:07;62107.28;;;-141.04;100.00
19128;BME280;9696;53.686;10.094;2023-11-21T05:53:36;62107.28;;;-141.04;100.00
19128;BME280;9696;53.686;10.094;2023-11-21T05:56:08;62107.28;;;-141.04;100.00
19128;BME280;9696;53.686;10.094;2023-11-21T05:58:37;62107.28;;;-141.04;100.00
19128;BME280;9696;53.686;10.094;2023-11-21T06:01:08;62107.28;;;-141.04;100.00
19128;BME280;9696;53.686;10.094;2023-11-21T06:03:46;62107.28;;;-141.04;100.00
19128;BME280;9696;53.686;10.094;2023-11-21T06:06:17;62107.28;;;-141.04;100.00
19128;BME280;9696;53.686;10.094;2023-11-21T06:08:51;62107.28;;;-141.04;100.00
19128;BME280;9696;53.686;10.094;2023-11-21T06:11:31;62107.28;;;-141.04;100.00
19128;BME280;9696;53.686;10.094;2023-11-21T06:14:08;62107.28;;;-141.04;100.00
19128;BME280;9696;53.686;10.094;2023-11-21T06:16:45;62107.28;;;-141.04;100.00
19128;BME280;9696;53.686;10.094;2023-11-21T06:19:18;62107.28;;;-141.04;100.00
19128;BME280;9696;53.686;10.094;2023-11-21T06:21:47;62107.28;;;-141.04;100.00
19128;BME280;9696;53.686;10.094;2023-11-21T06:24:17;62107.28;;;-141.04;100.00
19128;BME280;9696;53.686;10.094;2023-11-21T06:26:47;62107.28;;;-141.04;100.00
19128;BME280;9696;53.686;10.094;2023-11-21T06:29:17;62107.28;;;-141.04;100.00
19128;BME280;9696;53.686;10.094;2023-11-21T06:31:46;62107.28;;;-141.04;100.00
19128;BME280;9696;53.686;10.094;2023-11-21T06:34:17;62107.28;;;-141.04;100.00
19128;BME280;9696;53.686;10.094;2023-11-21T06:36:46;62107.28;;;-141.04;100.00
19128;BME280;9696;53.686;10.094;2023-11-21T06:39:16;62107.28;;;-141.04;100.00
19128;BME280;9696;53.686;10.094;2023-11-21T06:41:47;62107.28;;;-141.04;100.00
19128;BME280;9696;53.686;10.094;2023-11-21T06:44:16;62107.28;;;-141.04;100.00
19128;BME280;9696;53.686;10.094;2023-11-21T06:46:46;62107.28;;;-141.04;100.00
19128;BME280;9696;53.686;10.094;2023-11-21T06:49:16;62107.28;;;-141.04;100.00
19128;BME280;9696;53.686;10.094;2023-11-21T06:51:46;62107.28;;;-141.04;100.00
19128;BME280;9696;53.686;10.094;2023-11-21T06:54:18;62107.28;;;-141.04;100.00
19128;BME280;9696;53.686;10.094;2023-11-21T06:56:50;62107.28;;;-141.04;100.00
19128;BME280;9696;53.686;10.094;2023-11-21T06:59:21;62107.28;;;-141.04;100.00
19128;BME280;9696;53.686;10.094;2023-11-21T07:01:57;62107.28;;;-141.04;100.00
19128;BME280;9696;53.686;10.094;2023-11-21T07:04:27;62107.28;;;-141.04;100.00
19128;BME280;9696;53.686;10.094;2023-11-21T07:06:57;62107.28;;;-141.04;100.00
19128;BME280;9696;53.686;10.094;2023-11-21T07:09:26;62107.28;;;-141.04;100.00
19128;BME280;9696;53.686;10.094;2023-11-21T07:12:07;62107.28;;;-141.04;100.00
19128;BME280;9696;53.686;10.094;2023-11-21T07:14:37;62107.28;;;-141.04;100.00
19128;BME280;9696;53.686;10.094;2023-11-21T07:17:09;62107.28;;;-141.04;100.00
19128;BME280;9696;53.686;10.094;2023-11-21T07:19:38;62107.28;;;-141.04;100.00
19128;BME280;9696;53.686;10.094;2023-11-21T07:22:17;62107.28;;;-141.04;100.00
19128;BME280;9696;53.686;10.094;2023-11-21T07:24:49;62107.28;;;-141.04;100.00
19128;BME280;9696;53.686;10.094;2023-11-21T07:27:37;62107.28;;;-141.04;100.00
19128;BME280;9696;53.686;10.094;2023-11-21T07:30:09;62107.28;;;-141.04;100.00
19128;BME280;9696;53.686;10.094;2023-11-21T07:32:39;62107.28;;;-141.04;100.00
19128;BME280;9696;53.686;10.094;2023-11-21T07:35:10;62107.28;;;-141.04;100.00
19128;BME280;9696;53.686;10.094;2023-11-21T07:37:39;62107.28;;;-141.04;100.00
19128;BME280;9696;53.686;10.094;2023-11-21T07:40:13;62107.28;;;-141.04;100.00
19128;BME280;9696;53.686;10.094;2023-11-21T07:42:45;62107.28;;;-141.04;100.00
19128;BME280;9696;53.686;10.094;2023-11-21T07:45:14;62107.28;;;-141.04;100.00
19128;BME280;9696;53.686;10.094;2023-11-21T07:47:43;62107.28;;;-141.04;100.00
19128;BME280;9696;53.686;10.094;2023-11-21T07:50:14;62107.28;;;-141.04;100.00
19128;BME280;9696;53.686;10.094;2023-11-21T07:52:44;62107.28;;;-141.04;100.00
19128;BME280;9696;53.686;10.094;2023-11-21T07:55:14;62107.28;;;-141.04;100.00
19128;BME280;9696;53.686;10.094;2023-11-21T07:57:46;62107.28;;;-141.04;100.00
19128;BME280;9696;53.686;10.094;2023-11-21T08:00:16;62107.28;;;-141.04;100.00
19128;BME280;9696;53.686;10.094;2023-11-21T08:02:46;62107.28;;;-141.04;100.00
19128;BME280;9696;53.686;10.094;2023-11-21T08:05:15;62107.28;;;-141.04;100.00
19128;BME280;9696;53.686;10.094;2023-11-21T08:07:55;62107.28;;;-141.04;100.00
19128;BME280;9696;53.686;10.094;2023-11-21T08:10:25;62107.28;;;-141.04;100.00
19128;BME280;9696;53.686;10.094;2023-11-21T08:12:58;62107.28;;;-141.04;100.00
19128;BME280;9696;53.686;10.094;2023-11-21T08:15:28;62107.28;;;-141.04;100.00
19128;BME280;9696;53.686;10.094;2023-11-21T08:17:58;62107.28;;;-141.04;100.00
19128;BME280;9696;53.686;10.094;2023-11-21T08:20:29;62107.28;;;-141.04;100.00
19128;BME280;9696;53.686;10.094;2023-11-21T08:22:58;62107.28;;;-141.04;100.00
19128;BME280;9696;53.686;10.094;2023-11-21T08:25:31;62107.28;;;-141.04;100.00
19128;BME280;9696;53.686;10.094;2023-11-21T08:28:04;62107.28;;;-141.04;100.00
19128;BME280;9696;53.686;10.094;2023-11-21T08:30:33;62107.28;;;-141.04;100.00
19128;BME280;9696;53.686;10.094;2023-11-21T08:33:03;62107.28;;;-141.04;100.00
19128;BME280;9696;53.686;10.094;2023-11-21T08:35:33;62107.28;;;-141.04;100.00
19128;BME280;9696;53.686;10.094;2023-11-21T08:38:04;62107.28;;;-141.04;100.00
19128;BME280;9696;53.686;10.094;2023-11-21T08:40:37;62107.28;;;-141.04;100.00
19128;BME280;9696;53.686;10.094;2023-11-21T08:43:08;62107.28;;;-141.04;100.00
19128;BME280;9696;53.686;10.094;2023-11-21T08:45:40;62107.28;;;-141.04;100.00
19128;BME280;9696;53.686;10.094;2023-11-21T08:48:09;62107.28;;;-141.04;100.00
19128;BME280;9696;53.686;10.094;2023-11-21T08:50:39;62107.28;;;-141.04;100.00
19128;BME280;9696;53.686;10.094;2023-11-21T08:53:09;62107.28;;;-141.04;100.00
19128;BME280;9696;53.686;10.094;2023-11-21T08:55:39;62107.28;;;-141.04;100.00
19128;BME280;9696;53.686;10.094;2023-11-21T08:58:10;62107.28;;;-141.04;100.00
19128;BME280;9696;53.686;10.094;2023-11-21T09:00:40;62107.28;;;-141.04;100.00
19128;BME280;9696;53.686;10.094;2023-11-21T09:03:10;62107.28;;;-141.04;100.00
19128;BME280;9696;53.686;10.094;2023-11-21T09:05:40;62107.28;;;-141.04;100.00
19128;BME280;9696;53.686;10.094;2023-11-21T09:08:10;62107.28;;;-141.04;100.00
19128;BME280;9696;53.686;10.094;2023-11-21T09:10:39;62107.28;;;-141.04;100.00
19128;BME280;9696;53.686;10.094;2023-11-21T09:13:13;62107.28;;;-141.04;100.00
19128;BME280;9696;53.686;10.094;2023-11-21T09:15:44;62107.28;;;-141.04;100.00
19128;BME280;9696;53.686;10.094;2023-11-21T09:18:17;62107.28;;;-141.04;100.00
19128;BME280;9696;53.686;10.094;2023-11-21T09:20:47;62107.28;;;-141.04;100.00
19128;BME280;9696;53.686;10.094;2023-11-21T09:23:17;62107.28;;;-141.04;100.00
19128;BME280;9696;53.686;10.094;2023-11-21T09:25:47;62107.28;;;-141.04;100.00
19128;BME280;9696;53.686;10.094;2023-11-21T09:28:22;62107.28;;;-141.04;100.00
19128;BME280;9696;53.686;10.094;2023-11-21T09:30:55;62107.28;;;-141.04;100.00
19128;BME280;9696;53.686;10.094;2023-11-21T09:33:26;62107.28;;;-141.04;100.00
19128;BME280;9696;53.686;10.094;2023-11-21T09:35:56;62107.28;;;-141.04;100.00
19128;BME280;9696;53.686;10.094;2023-11-21T09:38:27;62107.28;;;-141.04;100.00
19128;BME280;9696;53.686;10.094;2023-11-21T09:40:58;62107.28;;;-141.04;100.00
19128;BME280;9696;53.686;10.094;2023-11-21T09:43:31;62107.28;;;-141.04;100.00
19128;BME280;9696;53.686;10.094;2023-11-21T09:46:02;62107.28;;;-141.04;100.00
19128;BME280;9696;53.686;10.094;2023-11-21T09:48:40;62107.28;;;-141.04;100.00
19128;BME280;9696;53.686;10.094;2023-11-21T09:51:15;62107.28;;;-141.04;100.00
19128;BME280;9696;53.686;10.094;2023-11-21T09:53:46;62107.28;;;-141.04;100.00
19128;BME280;9696;53.686;10.094;2023-11-21T09:56:18;62107.28;;;-141.04;100.00
19128;BME280;9696;53.686;10.094;2023-11-21T09:58:54;62107.28;;;-141.04;100.00
19128;BME280;9696;53.686;10.094;2023-11-21T10:01:25;62107.28;;;-141.04;100.00
19128;BME280;9696;53.686;10.094;2023-11-21T10:03:56;62107.28;;;-141.04;100.00
19128;BME280;9696;53.686;10.094;2023-11-21T10:06:29;62107.28;;;-141.04;100.00
19128;BME280;9696;53.686;10.094;2023-11-21T10:09:01;62107.28;;;-141.04;100.00
19128;BME280;9696;53.686;10.094;2023-11-21T10:11:32;62107.28;;;-141.04;100.00
19128;BME280;9696;53.686;10.094;2023-11-21T10:14:03;62107.28;;;-141.04;100.00
19128;BME280;9696;53.686;10.094;2023-11-21T10:16:33;62107.28;;;-141.04;100.00
19128;BME280;9696;53.686;10.094;2023-11-21T10:19:04;62107.28;;;-141.04;100.00
19128;BME280;9696;53.686;10.094;2023-11-21T10:21:39;62107.28;;;-141.04;100.00
19128;BME280;9696;53.686;10.094;2023-11-21T10:24:18;62107.28;;;-141.04;100.00
19128;BME280;9696;53.686;10.094;2023-11-21T10:26:47;62107.28;;;-141.04;100.00
19128;BME280;9696;53.686;10.094;2023-11-21T10:29:22;62107.28;;;-141.04;100.00
19128;BME280;9696;53.686;10.094;2023-11-21T10:31:52;62107.28;;;-141.04;100.00
19128;BME280;9696;53.686;10.094;2023-11-21T10:34:25;62107.28;;;-141.04;100.00
19128;BME280;9696;53.686;10.094;2023-11-21T10:36:56;62107.28;;;-141.04;100.00
19128;BME280;9696;53.686;10.094;2023-11-21T10:39:26;62107.28;;;-141.04;100.00
19128;BME280;9696;53.686;10.094;2023-11-21T10:41:59;62107.28;;;-141.04;100.00
19128;BME280;9696;53.686;10.094;2023-11-21T10:44:32;62107.28;;;-141.04;100.00
19128;BME280;9696;53.686;10.094;2023-11-21T10:47:02;62107.28;;;-141.04;100.00
19128;BME280;9696;53.686;10.094;2023-11-21T10:49:34;62107.28;;;-141.04;100.00
19128;BME280;9696;53.686;10.094;2023-11-21T10:52:03;62107.28;;;-141.04;100.00
19128;BME280;9696;53.686;10.094;2023-11-21T10:54:34;62107.28;;;-141.04;100.00
19128;BME280;9696;53.686;10.094;2023-11-21T10:57:11;62107.28;;;-141.04;100.00
19128;BME280;9696;53.686;10.094;2023-11-21T10:59:47;62107.28;;;-141.04;100.00
19128;BME280;9696;53.686;10.094;2023-11-21T11:02:23;62107.28;;;-141.04;100.00
19128;BME280;9696;53.686;10.094;2023-11-21T11:04:57;62107.28;;;-141.04;100.00
19128;BME280;9696;53.686;10.094;2023-11-21T11:07:48;62107.28;;;-141.04;100.00
19128;BME280;9696;53.686;10.094;2023-11-21T11:10:20;62107.28;;;-141.04;100.00
19128;BME280;9696;53.686;10.094;2023-11-21T11:13:00;62107.28;;;-141.04;100.00
19128;BME280;9696;53.686;10.094;2023-11-21T11:15:32;62107.28;;;-141.04;100.00
19128;BME280;9696;53.686;10.094;2023-11-21T11:18:33;62107.28;;;-141.04;100.00
19128;BME280;9696;53.686;10.094;2023-11-21T11:21:07;62107.28;;;-141.04;100.00
19128;BME280;9696;53.686;10.094;2023-11-21T11:24:04;62107.28;;;-141.04;100.00
19128;BME280;9696;53.686;10.094;2023-11-21T11:26:43;62107.28;;;-141.04;100.00
19128;BME280;9696;53.686;10.094;2023-11-21T11:29:27;62107.28;;;-141.04;100.00
19128;BME280;9696;53.686;10.094;2023-11-21T11:32:09;62107.28;;;-141.04;100.00
19128;BME280;9696;53.686;10.094;2023-11-21T11:34:47;62107.28;;;-141.04;100.00
19128;BME280;9696;53.686;10.094;2023-11-21T11:37:37;62107.28;;;-141.04;100.00
19128;BME280;9696;53.686;10.094;2023-11-21T11:40:10;62107.28;;;-141.04;100.00
19128;BME280;9696;53.686;10.094;2023-11-21T11:42:57;62107.28;;;-141.04;100.00
19128;BME280;9696;53.686;10.094;2023-11-21T11:45:33;62107.28;;;-141.04;100.00
19128;BME280;9696;53.686;10.094;2023-11-21T11:48:06;62107.28;;;-141.04;100.00
19128;BME280;9696;53.686;10.094;2023-11-21T11:50:35;62107.28;;;-141.04;100.00
19128;BME280;9696;53.686;10.094;2023-11-21T11:53:15;62107.28;;;-141.04;100.00
19128;BME280;9696;53.686;10.094;2023-11-21T11:55:47;62107.28;;;-141.04;100.00
19128;BME280;9696;53.686;10.094;2023-11-21T11:58:38;62107.28;;;-141.04;100.00
19128;BME280;9696;53.686;10.094;2023-11-21T12:01:08;62107.28;;;-141.04;100.00
19128;BME280;9696;53.686;10.094;2023-11-21T12:03:41;62107.28;;;-141.04;100.00
19128;BME280;9696;53.686;10.094;2023-11-21T12:06:14;62107.28;;;-141.04;100.00
19128;BME280;9696;53.686;10.094;2023-11-21T12:08:44;62107.28;;;-141.04;100.00
19128;BME280;9696;53.686;10.094;2023-11-21T12:11:18;62107.28;;;-141.04;100.00
19128;BME280;9696;53.686;10.094;2023-11-21T12:13:47;62107.28;;;-141.04;100.00
19128;BME280;9696;53.686;10.094;2023-11-21T12:16:21;62107.28;;;-141.04;100.00
19128;BME280;9696;53.686;10.094;2023-11-21T12:19:14;62107.28;;;-141.04;100.00
19128;BME280;9696;53.686;10.094;2023-11-21T12:21:44;62107.28;;;-141.04;100.00
19128;BME280;9696;53.686;10.094;2023-11-21T12:24:13;62107.28;;;-141.04;100.00
19128;BME280;9696;53.686;10.094;2023-11-21T12:26:44;62107.28;;;-141.04;100.00
19128;BME280;9696;53.686;10.094;2023-11-21T12:29:16;62107.28;;;-141.04;100.00
19128;BME280;9696;53.686;10.094;2023-11-21T12:31:48;62107.28;;;-141.04;100.00
19128;BME280;9696;53.686;10.094;2023-11-21T12:34:19;62107.28;;;-141.04;100.00
19128;BME280;9696;53.686;10.094;2023-11-21T12:36:50;62107.28;;;-141.04;100.00
19128;BME280;9696;53.686;10.094;2023-11-21T12:39:23;62107.28;;;-141.04;100.00
19128;BME280;9696;53.686;10.094;2023-11-21T12:41:53;62107.28;;;-141.04;100.00
19128;BME280;9696;53.686;10.094;2023-11-21T12:44:23;62107.28;;;-141.04;100.00
19128;BME280;9696;53.686;10.094;2023-11-21T12:46:53;62107.28;;;-141.04;100.00
19128;BME280;9696;53.686;10.094;2023-11-21T12:49:26;62107.28;;;-141.04;100.00
19128;BME280;9696;53.686;10.094;2023-11-21T12:52:05;62107.28;;;-141.04;100.00
19128;BME280;9696;53.686;10.094;2023-11-21T12:54:36;62107.28;;;-141.04;100.00
19128;BME280;9696;53.686;10.094;2023-11-21T12:57:06;62107.28;;;-141.04;100.00
19128;BME280;9696;53.686;10.094;2023-11-21T12:59:39;62107.28;;;-141.04;100.00
19128;BME280;9696;53.686;10.094;2023-11-21T13:02:13;62107.28;;;-141.04;100.00
19128;BME280;9696;53.686;10.094;2023-11-21T13:04:52;62107.28;;;-141.04;100.00
19128;BME280;9696;53.686;10.094;2023-11-21T13:07:22;62107.28;;;-141.04;100.00
19128;BME280;9696;53.686;10.094;2023-11-21T13:09:55;62107.28;;;-141.04;100.00
19128;BME280;9696;53.686;10.094;2023-11-21T13:12:24;62107.28;;;-141.04;100.00
19128;BME280;9696;53.686;10.094;2023-11-21T13:14:54;62107.28;;;-141.04;100.00
19128;BME280;9696;53.686;10.094;2023-11-21T13:17:23;62107.28;;;-141.04;100.00
19128;BME280;9696;53.686;10.094;2023-11-21T13:19:54;62107.28;;;-141.04;100.00
19128;BME280;9696;53.686;10.094;2023-11-21T13:22:27;62107.28;;;-141.04;100.00
19128;BME280;9696;53.686;10.094;2023-11-21T13:24:57;62107.28;;;-141.04;100.00
19128;BME280;9696;53.686;10.094;2023-11-21T13:27:29;62107.28;;;-141.04;100.00
19128;BME280;9696;53.686;10.094;2023-11-21T13:30:00;62107.28;;;-141.04;100.00
19128;BME280;9696;53.686;10.094;2023-11-21T13:32:31;62107.28;;;-141.04;100.00
19128;BME280;9696;53.686;10.094;2023-11-21T13:35:04;62107.28;;;-141.04;100.00
19128;BME280;9696;53.686;10.094;2023-11-21T13:37:46;62107.28;;;-141.04;100.00
19128;BME280;9696;53.686;10.094;2023-11-21T13:40:19;62107.28;;;-141.04;100.00
19128;BME280;9696;53.686;10.094;2023-11-21T13:42:50;62107.28;;;-141.04;100.00